Flight Track Log - Related Links

Times and Time Zones

All times are in EST time to prevent confusion due to time zone crossing. See the N7260Q flight status page for this flight to view local times or setup timezone preferences in your user account.

Time Position Orientation Groundspeed Altitude Reporting Facility
EST Latitude Longitude Course Direction KTS MPH feet Rate Location/Type
Sun 04:16:16 PM 29.6561 -81.7789 250° West 147 169 2,000  Level Jacksonville Center
Sun 04:17:05 PM 29.6461 -81.8100 250° West 136 157 2,000 218 Level Jacksonville Center
Sun 04:18:06 PM 29.6381 -81.8556 259° West 133 153 2,400 541 Climbing Jacksonville Center
Sun 04:19:07 PM 29.6383 -81.8914 271° West 110 127 3,100 703 Climbing Jacksonville Center
Sun 04:20:14 PM 29.6281 -81.9225 249° West 100 115 3,900 656 Climbing Jacksonville Center
Sun 04:21:15 PM 29.6011 -81.9253 185° South 100 115 4,500 541 Climbing Jacksonville Center
Sun 04:22:16 PM 29.5697 -81.9256 180° South 112 129 5,000 492 Climbing Jacksonville Center
Sun 04:23:17 PM 29.5383 -81.9258 180° South 113 130 5,500 492 Climbing Jacksonville Center
Sun 04:24:18 PM 29.5050 -81.9261 180° South 120 138 6,000 466 Climbing Jacksonville Center
Sun 04:25:13 PM 29.4758 -81.9289 185° South 123 142 6,400 492 Climbing Jacksonville Center
Sun 04:26:20 PM 29.4425 -81.9411 198° South 113 130 7,000 516 Climbing Jacksonville Center
Sun 04:27:21 PM 29.4114 -81.9508 195° South 105 121 7,500 517 Climbing Jacksonville Center
Sun 04:28:16 PM 29.3883 -81.9631 205° Southwest 102 117 8,000 466 Climbing Jacksonville Center
Sun 04:29:17 PM 29.3614 -81.9728 197° South 98 113 8,400 496 Climbing Jacksonville Center
Sun 04:30:17 PM 29.3364 -81.9803 195° South 98 113 9,000 295 Climbing Jacksonville Center
Sun 04:31:19 PM 29.3050 -81.9875 191° South 115 132 9,000  Level Jacksonville Center
Sun 04:32:19 PM 29.2614 -82.0000 194° South 147 169 9,000  Level Jacksonville Center
Sun 04:33:20 PM 29.2217 -82.0097 192° South 146 168 9,000  Level Jacksonville Center
Sun 04:34:27 PM 29.1822 -82.0197 192° South 143 165 9,000  Level Jacksonville Center
Sun 04:35:28 PM 29.1406 -82.0297 192° South 142 163 9,000  Level Jacksonville Center
Sun 04:36:29 PM 29.1008 -82.0347 186° South 139 160 9,000  Level Jacksonville Center
Sun 04:37:30 PM 29.0633 -82.0444 193° South 139 160 9,000  Level Jacksonville Center
Sun 04:38:31 PM 29.0258 -82.0519 190° South 137 158 9,000  Level Jacksonville Center
Sun 04:39:32 PM 28.9903 -82.0594 190° South 139 160 9,000  Level Jacksonville Center
Sun 04:40:27 PM 28.9508 -82.0692 192° South 142 163 9,000  Level Jacksonville Center
Sun 04:41:28 PM 28.9133 -82.0742 187° South 139 160 9,000  Level Jacksonville Center
Sun 04:42:29 PM 28.8717 -82.0842 192° South 139 160 9,000  Level Jacksonville Center
Sun 04:43:30 PM 28.8319 -82.0939 192° South 139 160 9,000  Level Jacksonville Center
Sun 04:45:30 PM 28.7500 -82.1000 184° South 140 161 9,000 -33 Level Tampa TRACON
Sun 04:46:30 PM 28.7167 -82.1167 204° Southwest 142 163 8,900 -50 Descending Tampa TRACON
Sun 04:47:30 PM 28.6833 -82.1333 204° Southwest 140 161 8,900  Level Tampa TRACON
Sun 04:48:30 PM 28.6500 -82.1333 180° South 141 162 8,900  Level Tampa TRACON
Sun 04:49:31 PM 28.6000 -82.1333 180° South 152 175 8,900  Level Tampa TRACON
Sun 04:50:36 PM 28.5667 -82.1167 156° South 149 171 8,900  Level Tampa TRACON
Sun 04:51:31 PM 28.5167 -82.1167 180° South 145 167 8,900 52 Level Tampa TRACON
Sun 04:52:31 PM 28.4833 -82.1000 156° South 144 166 9,000  Climbing Tampa TRACON
Sun 04:53:30 PM 28.4500 -82.1000 180° South 142 163 8,900 -50 Descending Tampa TRACON
Sun 04:54:31 PM 28.4000 -82.0833 164° South 139 160 8,900 50 Level Tampa TRACON
Sun 04:55:31 PM 28.3667 -82.0833 180° South 139 160 9,000 50 Climbing Tampa TRACON
Sun 04:56:31 PM 28.3333 -82.0833 180° South 135 155 9,000  Level Tampa TRACON
Sun 04:57:31 PM 28.3000 -82.0667 156° South 139 160 9,000  Level Tampa TRACON
Sun 04:58:31 PM 28.2500 -82.0667 180° South 142 163 9,000  Level Tampa TRACON
Sun 04:59:31 PM 28.2167 -82.0667 180° South 143 165 9,000  Level Tampa TRACON
Sun 05:00:31 PM 28.1833 -82.0500 156° South 141 162 9,000  Level Tampa TRACON
Sun 05:01:31 PM 28.1333 -82.0500 180° South 138 159 9,000  Level Tampa TRACON
Sun 05:03:14 PM 28.0758 -82.0333 166° South 90 104 9,000  Level Miami Center
Sun 05:04:14 PM 28.0386 -82.0269 171° South 129 148 9,000  Level Miami Center
Sun 05:05:14 PM 27.9992 -82.0203 172° South 143 165 9,000  Level Miami Center
Sun 05:06:14 PM 27.9600 -82.0114 169° South 148 170 9,000  Level Miami Center
Sun 05:07:14 PM 27.9225 -82.0050 171° South 143 165 9,000  Level Miami Center
Sun 05:08:14 PM 27.8831 -81.9986 172° South 143 165 9,000 50 Level Miami Center
Sun 05:09:14 PM 27.8458 -81.9922 171° South 143 165 9,100 50 Climbing Miami Center
Sun 05:10:14 PM 27.8022 -81.9856 172° South 143 165 9,100  Level Miami Center
Sun 05:11:14 PM 27.7650 -81.9769 168° South 138 159 9,100  Level Miami Center
Sun 05:12:14 PM 27.7253 -81.9822 187° South 143 165 9,100  Level Miami Center
Sun 05:13:14 PM 27.6875 -81.9850 184° South 143 165 9,100 -200 Level Miami Center
Sun 05:14:14 PM 27.6478 -81.9858 181° South 143 165 8,700 -450 Descending Miami Center
Sun 05:15:14 PM 27.6019 -81.9883 183° South 148 170 8,200 -450 Descending Miami Center
Sun 05:16:14 PM 27.5603 -81.9864 178° South 148 170 7,800 -450 Descending Miami Center
Sun 05:17:14 PM 27.5161 -81.9914 186° South 155 178 7,300 -350 Descending Miami Center
Sun 05:18:14 PM 27.4744 -81.9897 178° South 160 184 7,100 -100 Descending Miami Center
Sun 05:19:14 PM 27.4328 -81.9878 178° South 160 184 7,100  Level Miami Center
Sun 05:20:14 PM 27.3953 -81.9883 181° South 155 178 7,100  Level Miami Center
Sun 05:21:14 PM 27.3556 -81.9892 181° South 155 178 7,100  Level Miami Center
Sun 05:22:14 PM 27.3158 -81.9897 181° South 149 171 7,100  Level Miami Center
Sun 05:23:14 PM 27.2761 -81.9903 181° South 149 171 7,100 -50 Level Miami Center
Sun 05:24:14 PM 27.2367 -81.9908 181° South 143 165 7,000 -50 Descending Miami Center
Sun 05:25:14 PM 27.1969 -81.9914 181° South 143 165 7,000  Level Miami Center
Sun 05:26:14 PM 27.1572 -81.9919 181° South 143 165 7,000 -100 Level Miami Center
Sun 05:27:14 PM 27.1175 -81.9903 178° South 143 165 6,800 -400 Descending Miami Center
Sun 05:28:14 PM 27.0739 -81.9906 180° South 148 170 6,200 -600 Descending Miami Center
Sun 05:30:00 PM 27.0072 -81.9875 178° South  Level FlightAware Approximate
Sun 05:37:00 PM 26.7479 -81.9372 166° South  Level FlightAware Approximate
Sun 05:38:00 PM 26.7112 -81.9272 166° South  Level FlightAware Approximate
Sun 05:39:00 PM 26.6745 -81.9172 166° South  Level FlightAware Approximate
Sun 05:40:00 PM 26.6378 -81.9072 166° South  Level FlightAware Approximate
Sun 05:41:00 PM 26.6012 -81.8972 166° South  Level FlightAware Approximate
Sun 05:42:00 PM 26.5645 -81.8873 166° South  Level FlightAware Approximate
Sun 05:43:00 PM 26.5281 -81.8760 163° South  Level FlightAware Approximate
Sun 05:44:00 PM 26.4917 -81.8650 170° South  Level FlightAware Approximate
Sun 05:45:00 PM 26.4545 -81.8576 170° South  Level FlightAware Approximate
Sun 05:46:00 PM 26.4174 -81.8501 170° South  Level FlightAware Approximate
Sun 05:47:00 PM 26.3812 -81.8382 163° South  Level FlightAware Approximate
Sun 05:48:00 PM 26.3450 -81.8261 163° South  Level FlightAware Approximate
Sun 05:49:00 PM 26.3088 -81.8140 163° South  Level FlightAware Approximate
Sun 05:50:00 PM 26.2726 -81.8020 163° South  Level FlightAware Approximate
Sun 05:51:00 PM 26.2365 -81.7899 163° South  Level FlightAware Approximate
Sun 05:52:00 PM 26.2000 -81.7792 167° South  Level FlightAware Approximate
Sun 05:53:00 PM 26.1632 -81.7700 167° South  Level FlightAware Approximate
Sun 05:54:00 PM 26.1500 -81.7667 167° South  Level FlightAware Approximate
Sun 05:55:00 PM 26.1524 -81.7756 167° South  Level Estimated
Sun 05:56:00 PM 26.1524 -81.7756 167° South  Level Estimated
Sun 05:57:00 PM 26.1524 -81.7756 167° South  Level Estimated
Sun 05:58:00 PM 26.1524 -81.7756 167° South  Level Estimated
Sun 05:59:00 PM 26.1524 -81.7756 167° South  Level Estimated
Sun 06:00:00 PM 26.1524 -81.7756 167° South  Level Estimated
Sun 06:01:00 PM 26.1524 -81.7756 167° South  Level Estimated
Sun 06:02:00 PM 26.1524 -81.7756 167° South  Level Estimated
Sun 06:03:00 PM 26.1524 -81.7756 167° South  Level Estimated
Sun 06:04:00 PM 26.1524 -81.7756 167° South  Level Estimated
Sun 06:05:00 PM 26.1524 -81.7756 167° South  Level Estimated
Sun 06:06:00 PM 26.1524 -81.7756 167° South  Level Estimated
Sun 06:07:00 PM 26.1524 -81.7756 167° South  Level Estimated
Sun 06:08:00 PM 26.1524 -81.7756 167° South  Level Estimated
Sun 06:09:00 PM 26.1524 -81.7756 167° South  Level Estimated

Login

Don't have an account? Register now (free) for customized features, flight alerts, and more!